createdAt,value
2019-06-15T07:58:24.247Z,23.16
2019-06-15T08:00:25.635Z,23.16
2019-06-15T08:02:37.298Z,25.13
2019-06-15T08:04:48.129Z,25.16
2019-06-15T08:06:59.063Z,25.15
2019-06-15T08:09:09.892Z,25.03
2019-06-15T08:11:20.748Z,24.89
2019-06-15T08:13:31.596Z,24.73
2019-06-15T08:15:42.448Z,24.87
2019-06-15T08:17:53.269Z,25.35
2019-06-15T08:20:09.373Z,25.56
2019-06-15T08:22:20.222Z,25.64
2019-06-15T08:24:31.049Z,25.73
2019-06-15T08:26:42.781Z,25.42
2019-06-15T08:28:53.654Z,25.22
2019-06-15T08:31:06.707Z,25.32
2019-06-15T08:33:17.546Z,25.22
2019-06-15T08:35:28.407Z,24.93
2019-06-15T08:37:39.434Z,24.86
2019-06-15T08:39:50.376Z,25.08
2019-06-15T08:42:01.210Z,25.23
2019-06-15T08:44:12.024Z,25.22
2019-06-15T08:46:23.081Z,25.14
2019-06-15T08:48:36.895Z,25.12
2019-06-15T08:50:47.736Z,25.04
2019-06-15T08:52:58.650Z,24.84
2019-06-15T08:55:09.461Z,24.54
2019-06-15T08:57:20.302Z,24.33
2019-06-15T08:59:31.132Z,24.35
2019-06-15T09:01:41.974Z,24.44
2019-06-15T09:03:52.797Z,24.64
2019-06-15T09:06:03.718Z,24.99
2019-06-15T09:08:14.555Z,25.27
2019-06-15T09:10:25.381Z,25.51
2019-06-15T09:12:38.252Z,25.45
2019-06-15T09:14:49.076Z,25.56
2019-06-15T09:17:00.023Z,25.63
2019-06-15T09:19:10.865Z,25.64
2019-06-15T09:21:21.788Z,25.70
2019-06-15T09:23:32.645Z,25.66
2019-06-15T09:25:43.563Z,25.63
2019-06-15T09:27:54.432Z,25.46
2019-06-15T09:30:06.071Z,25.17
2019-06-15T09:32:16.957Z,25.11
2019-06-15T09:34:27.799Z,25.13
2019-06-15T09:36:38.600Z,25.24
2019-06-15T09:38:49.734Z,25.43
2019-06-15T09:41:00.608Z,25.68
2019-06-15T09:43:11.468Z,25.75
2019-06-15T09:45:22.475Z,25.74
2019-06-15T09:47:33.340Z,25.93
2019-06-15T09:49:44.202Z,26.07
2019-06-15T09:51:55.038Z,26.13
2019-06-15T09:54:05.958Z,26.18
2019-06-15T09:56:16.876Z,26.34
2019-06-15T09:58:27.721Z,26.58
2019-06-15T10:00:38.545Z,26.63
2019-06-15T10:02:49.376Z,26.74
2019-06-15T10:05:00.222Z,26.52
2019-06-15T10:07:11.053Z,26.32
2019-06-15T10:09:21.908Z,26.05
2019-06-15T10:11:32.725Z,25.86
2019-06-15T10:13:43.598Z,25.76
2019-06-15T10:15:54.455Z,25.65
2019-06-15T10:18:05.403Z,25.62
2019-06-15T10:20:16.455Z,25.61
2019-06-15T10:22:27.285Z,25.58
2019-06-15T10:24:38.123Z,25.63
2019-06-15T10:26:49.122Z,25.77
2019-06-15T10:29:00.084Z,25.93
2019-06-15T10:31:11.067Z,26.22
2019-06-15T10:33:21.874Z,26.44
2019-06-15T10:35:32.721Z,26.61
2019-06-15T10:37:43.553Z,26.89
2019-06-15T10:39:54.500Z,26.98
2019-06-15T10:42:05.546Z,26.97
2019-06-15T10:44:16.534Z,27.07
2019-06-15T10:46:27.372Z,26.98
2019-06-15T10:48:38.210Z,27.01
2019-06-15T10:50:49.070Z,27.03
2019-06-15T10:52:59.965Z,26.90
2019-06-15T10:55:11.102Z,26.73
2019-06-15T10:57:21.920Z,26.40
2019-06-15T10:59:32.983Z,26.01
2019-06-15T11:01:43.919Z,25.80
2019-06-15T11:03:54.821Z,25.76
2019-06-15T11:06:05.631Z,25.89
2019-06-15T11:08:16.487Z,26.12
2019-06-15T11:10:54.073Z,26.27
2019-06-15T11:13:05.016Z,26.38
2019-06-15T11:15:15.980Z,26.38
2019-06-15T11:17:26.919Z,26.33
2019-06-15T11:19:37.843Z,26.38
2019-06-15T11:21:48.679Z,26.43
2019-06-15T11:23:59.701Z,26.30
2019-06-15T11:26:10.566Z,26.28
2019-06-15T11:28:21.410Z,26.35
2019-06-15T11:30:32.289Z,26.36
2019-06-15T11:32:43.115Z,26.24
2019-06-15T11:34:53.995Z,25.97
2019-06-15T11:37:04.823Z,25.97
2019-06-15T11:39:15.893Z,26.03
2019-06-15T11:41:26.829Z,26.16
2019-06-15T11:43:37.758Z,26.30
2019-06-15T11:45:48.675Z,26.47
2019-06-15T11:47:59.538Z,26.50
2019-06-15T11:50:12.028Z,26.26
2019-06-15T11:52:23.097Z,26.29
2019-06-15T11:54:34.025Z,26.31
2019-06-15T11:56:44.859Z,26.15
2019-06-15T11:58:55.737Z,25.89
2019-06-15T12:01:07.083Z,25.73
2019-06-15T12:03:17.938Z,25.74
2019-06-15T12:05:29.367Z,25.75
2019-06-15T12:07:40.320Z,25.81
2019-06-15T12:09:51.171Z,25.84
2019-06-15T12:12:02.148Z,25.98
2019-06-15T12:14:12.976Z,26.13
2019-06-15T12:16:23.815Z,26.15
2019-06-15T12:18:34.781Z,26.06
2019-06-15T12:20:45.636Z,26.15
2019-06-15T12:22:56.491Z,26.20
2019-06-15T12:25:07.841Z,26.07
2019-06-15T12:27:18.694Z,26.00
2019-06-15T12:29:29.574Z,25.98
2019-06-15T12:31:40.447Z,26.00
2019-06-15T12:33:51.368Z,26.10
2019-06-15T12:36:02.293Z,26.17
2019-06-15T12:38:13.193Z,26.23
2019-06-15T12:40:24.132Z,26.31
2019-06-15T12:42:34.995Z,26.37
2019-06-15T12:44:45.826Z,26.20
2019-06-15T12:46:56.662Z,26.14
2019-06-15T12:49:07.517Z,26.23
2019-06-15T12:51:18.388Z,26.21
2019-06-15T12:53:29.243Z,26.28
2019-06-15T12:55:40.090Z,26.30
2019-06-15T12:57:52.975Z,26.32
2019-06-15T13:00:07.609Z,26.16
2019-06-15T13:02:18.456Z,26.16
2019-06-15T13:04:29.294Z,26.02
2019-06-15T13:06:42.074Z,26.05
2019-06-15T13:08:52.940Z,26.00
2019-06-15T13:11:03.809Z,25.95
2019-06-15T13:13:14.869Z,25.90
2019-06-15T13:15:25.732Z,25.88
2019-06-15T13:17:36.555Z,25.76
2019-06-15T13:19:47.409Z,25.71
2019-06-15T13:21:58.270Z,25.65
2019-06-15T13:24:09.094Z,25.44
2019-06-15T13:26:19.940Z,25.45
2019-06-15T13:28:30.887Z,25.39
2019-06-15T13:30:41.786Z,25.38
2019-06-15T13:32:52.624Z,25.29
2019-06-15T13:35:05.584Z,25.28
2019-06-15T13:37:16.453Z,25.34
2019-06-15T13:39:27.489Z,25.37
2019-06-15T13:41:38.357Z,25.30
2019-06-15T13:43:49.183Z,25.26
2019-06-15T13:46:00.057Z,25.22
2019-06-15T13:48:11.775Z,25.20
2019-06-15T13:50:22.776Z,25.23
2019-06-15T13:52:33.681Z,25.25
2019-06-15T13:54:44.642Z,25.22
2019-06-15T13:56:55.577Z,25.24
2019-06-15T13:59:06.447Z,25.25
2019-06-15T14:01:17.246Z,25.26
2019-06-15T14:03:28.206Z,25.17
2019-06-15T14:05:39.363Z,25.12
2019-06-15T14:07:50.286Z,25.05
2019-06-15T14:10:01.636Z,25.10
2019-06-15T14:12:12.593Z,25.12
2019-06-15T14:14:23.399Z,25.23
2019-06-15T14:16:34.280Z,25.32
2019-06-15T14:18:45.102Z,25.37
2019-06-15T14:20:56.065Z,25.39
2019-06-15T14:23:06.993Z,25.35
2019-06-15T14:25:17.820Z,25.32
2019-06-15T14:27:28.674Z,25.29
2019-06-15T14:29:39.607Z,25.23
2019-06-15T14:31:50.842Z,25.17
2019-06-15T14:34:01.738Z,25.16
2019-06-15T14:36:14.772Z,25.12
2019-06-15T14:38:25.661Z,25.18
2019-06-15T14:40:36.578Z,25.14
2019-06-15T14:42:49.341Z,25.17
2019-06-15T14:45:00.160Z,25.13
2019-06-15T14:47:10.997Z,25.11
2019-06-15T14:49:21.831Z,25.18
2019-06-15T14:51:32.668Z,25.13
2019-06-15T14:53:49.851Z,25.19
2019-06-15T14:55:56.605Z,25.26
2019-06-15T14:58:07.534Z,25.29
2019-06-15T15:00:18.857Z,25.38
2019-06-15T15:02:29.696Z,25.32
2019-06-15T15:04:40.642Z,25.26
2019-06-15T15:06:51.475Z,25.22
2019-06-15T15:09:03.707Z,25.20
2019-06-15T15:11:16.924Z,25.18
2019-06-15T15:13:27.271Z,25.17
2019-06-15T15:15:38.196Z,25.04
2019-06-15T15:17:49.230Z,25.06
2019-06-15T15:20:03.773Z,25.07
2019-06-15T15:22:12.820Z,25.06
2019-06-15T15:24:23.800Z,25.02
2019-06-15T15:26:36.915Z,25.02
2019-06-15T15:28:47.616Z,25.11
2019-06-15T15:30:58.478Z,25.05
2019-06-15T15:33:09.422Z,25.01
2019-06-15T15:35:20.312Z,24.94
2019-06-15T15:37:31.142Z,24.89
2019-06-15T15:39:41.998Z,24.84
2019-06-15T15:41:52.836Z,24.88
2019-06-15T15:44:03.791Z,24.83
2019-06-15T15:46:16.547Z,24.75
2019-06-15T15:48:27.351Z,24.77
2019-06-15T15:50:38.277Z,24.78
2019-06-15T15:52:49.310Z,24.72
2019-06-15T15:55:00.166Z,24.73
2019-06-15T15:57:10.987Z,24.80
2019-06-15T15:59:21.836Z,24.80
2019-06-15T16:01:32.707Z,24.73
2019-06-15T16:03:43.538Z,24.72
2019-06-15T16:05:56.103Z,24.73
2019-06-15T16:08:07.114Z,24.76
2019-06-15T16:10:18.053Z,24.79
2019-06-15T16:12:28.995Z,24.78
2019-06-15T16:14:39.845Z,24.69
2019-06-15T16:16:50.812Z,24.66
2019-06-15T16:19:01.650Z,24.58
2019-06-15T16:21:12.589Z,24.51
2019-06-15T16:23:23.436Z,24.47
2019-06-15T16:25:37.009Z,24.49
2019-06-15T16:27:48.934Z,24.56
2019-06-15T16:29:59.894Z,24.56
2019-06-15T16:32:10.750Z,24.60
2019-06-15T16:34:21.607Z,24.58
2019-06-15T16:36:32.478Z,24.64
2019-06-15T16:38:43.310Z,24.59
2019-06-15T16:40:56.126Z,24.54
2019-06-15T16:43:07.637Z,24.45
2019-06-15T16:45:18.488Z,24.40
2019-06-15T16:47:29.327Z,24.29
2019-06-15T16:49:40.141Z,24.20
2019-06-15T16:51:51.116Z,24.16
2019-06-15T16:54:02.070Z,24.11
2019-06-15T16:56:12.892Z,24.02
2019-06-15T16:58:26.342Z,23.99
2019-06-15T17:00:36.613Z,24.01
2019-06-15T17:02:47.720Z,24.02
2019-06-15T17:04:58.561Z,24.04
2019-06-15T17:07:09.404Z,24.08
2019-06-15T17:09:22.142Z,24.13
2019-06-15T17:11:33.093Z,24.21
2019-06-15T17:13:43.914Z,24.21
2019-06-15T17:15:57.091Z,24.20
2019-06-15T17:18:07.719Z,24.18
2019-06-15T17:20:22.339Z,24.18
2019-06-15T17:22:35.332Z,24.04
2019-06-15T17:24:46.074Z,24.00
2019-06-15T17:26:57.145Z,23.95
2019-06-15T17:29:08.078Z,23.88
2019-06-15T17:31:18.961Z,23.77
2019-06-15T17:33:37.725Z,23.73
2019-06-15T17:35:55.129Z,23.69
2019-06-15T17:37:56.447Z,23.71
2019-06-15T17:40:07.722Z,23.69
2019-06-15T17:42:18.581Z,23.73
2019-06-15T17:44:29.422Z,23.71
2019-06-15T17:46:40.249Z,23.69
2019-06-15T17:48:51.089Z,23.64
2019-06-15T17:51:02.035Z,23.61
2019-06-15T17:53:12.870Z,23.59
2019-06-15T17:55:23.800Z,23.58
2019-06-15T17:57:36.095Z,23.52
2019-06-15T17:59:47.164Z,23.49
2019-06-15T18:01:58.010Z,23.45
2019-06-15T18:04:08.831Z,23.39
2019-06-15T18:06:19.668Z,23.39
2019-06-15T18:08:30.515Z,23.39
2019-06-15T18:10:41.382Z,23.34
2019-06-15T18:12:52.237Z,23.32
2019-06-15T18:15:06.565Z,23.30
2019-06-15T18:17:17.406Z,23.29
2019-06-15T18:19:28.280Z,23.29
2019-06-15T18:21:41.166Z,23.26
2019-06-15T18:23:51.987Z,23.28
2019-06-15T18:26:03.022Z,23.27
2019-06-15T18:28:17.124Z,23.23
2019-06-15T18:30:27.243Z,23.23
2019-06-15T18:32:38.155Z,23.18
2019-06-15T18:34:49.135Z,23.10
2019-06-15T18:36:59.995Z,23.03
2019-06-15T18:39:10.852Z,22.84
2019-06-15T18:41:21.709Z,22.83
2019-06-15T18:43:32.567Z,22.81
2019-06-15T18:45:43.399Z,22.83
2019-06-15T18:47:56.559Z,22.84
2019-06-15T18:50:07.789Z,22.86
2019-06-15T18:52:18.607Z,22.81
2019-06-15T18:54:29.473Z,22.80
2019-06-15T18:56:42.214Z,22.76
2019-06-15T18:58:56.109Z,22.72
2019-06-15T19:01:07.007Z,22.63
2019-06-15T19:03:18.327Z,22.58
2019-06-15T19:05:29.251Z,22.54
2019-06-15T19:07:40.111Z,22.50
2019-06-15T19:09:51.070Z,22.46
2019-06-15T19:12:02.015Z,22.39
2019-06-15T19:14:12.980Z,22.22
2019-06-15T19:16:23.846Z,22.11
2019-06-15T19:18:37.042Z,22.03
2019-06-15T19:20:47.515Z,21.99
2019-06-15T19:22:58.308Z,21.99
2019-06-15T19:25:09.241Z,21.98
2019-06-15T19:27:20.214Z,21.91
2019-06-15T19:29:31.118Z,21.70
2019-06-15T19:31:41.955Z,21.52
2019-06-15T19:33:52.774Z,21.35
2019-06-15T19:36:06.188Z,21.18
2019-06-15T19:38:16.578Z,21.05
2019-06-15T19:40:27.526Z,20.91
2019-06-15T19:42:38.379Z,20.79
2019-06-15T19:44:49.246Z,20.69
2019-06-15T19:47:00.528Z,20.60
2019-06-15T19:49:11.468Z,20.55
2019-06-15T19:51:22.298Z,20.48
2019-06-15T19:53:36.180Z,20.39
2019-06-15T19:55:46.627Z,20.27
2019-06-15T19:57:57.597Z,20.15
2019-06-15T20:00:08.851Z,20.12
2019-06-15T20:02:19.693Z,20.04
2019-06-15T20:04:30.541Z,19.98
2019-06-15T20:06:41.436Z,19.94
2019-06-15T20:08:52.285Z,19.94
2019-06-15T20:11:03.356Z,19.97
2019-06-15T20:13:14.308Z,19.93
2019-06-15T20:15:26.257Z,19.87
2019-06-15T20:17:37.616Z,19.82
2019-06-15T20:19:48.463Z,19.77
2019-06-15T20:22:00.881Z,19.75
2019-06-15T20:24:11.771Z,19.73
2019-06-15T20:26:22.731Z,19.71
2019-06-15T20:28:33.779Z,19.65
2019-06-15T20:30:46.231Z,19.58
2019-06-15T20:32:57.227Z,19.54
2019-06-15T20:35:16.529Z,19.50
2019-06-15T20:37:21.637Z,19.51
2019-06-15T20:39:32.500Z,19.47
2019-06-15T20:41:43.352Z,19.38
2019-06-15T20:43:56.521Z,19.30
2019-06-15T20:46:07.346Z,19.24
2019-06-15T20:48:18.320Z,19.28
2019-06-15T20:50:29.160Z,19.28
2019-06-15T20:52:40.030Z,19.30
2019-06-15T20:54:50.850Z,19.27
2019-06-15T20:57:01.825Z,19.26
2019-06-15T20:59:12.748Z,19.27
2019-06-15T21:01:25.882Z,19.27
2019-06-15T21:03:36.860Z,19.28
2019-06-15T21:05:48.198Z,19.24
2019-06-15T21:07:59.037Z,19.25
2019-06-15T21:10:10.368Z,19.18
2019-06-15T21:12:21.309Z,19.21
2019-06-15T21:14:32.191Z,19.26
2019-06-15T21:16:43.004Z,19.34
2019-06-15T21:18:53.844Z,19.38
2019-06-15T21:21:06.892Z,19.39
2019-06-15T21:23:17.521Z,19.40
2019-06-15T21:25:28.387Z,19.44
2019-06-15T21:27:39.357Z,19.51
2019-06-15T21:29:50.424Z,19.56
2019-06-15T21:32:01.309Z,19.61
2019-06-15T21:34:12.142Z,19.67
2019-06-15T21:36:22.962Z,19.75
2019-06-15T21:38:36.037Z,19.83
2019-06-15T21:40:47.516Z,19.90
2019-06-15T21:42:58.740Z,19.99
2019-06-15T21:45:09.968Z,20.05
2019-06-15T21:47:20.899Z,20.13
2019-06-15T21:49:31.735Z,20.21
2019-06-15T21:51:42.681Z,20.28
2019-06-15T21:53:55.900Z,20.33
2019-06-15T21:56:07.228Z,20.39
2019-06-15T21:58:18.359Z,20.42
2019-06-15T22:00:50.165Z,20.45
2019-06-15T22:03:01.540Z,20.37
2019-06-15T22:05:12.692Z,20.23
2019-06-15T22:07:26.024Z,20.12
2019-06-15T22:09:36.603Z,19.88
2019-06-15T22:11:47.475Z,19.62
2019-06-15T22:13:58.327Z,19.49
2019-06-15T22:16:09.161Z,19.31
2019-06-15T22:18:19.995Z,19.21
2019-06-15T22:20:30.905Z,19.22
2019-06-15T22:22:41.732Z,19.17
2019-06-15T22:24:52.573Z,19.13
2019-06-15T22:27:03.529Z,19.07
2019-06-15T22:29:16.798Z,19.03
2019-06-15T22:31:27.915Z,18.99
2019-06-15T22:33:38.754Z,19.00
2019-06-15T22:35:49.611Z,18.98
2019-06-15T22:38:00.445Z,18.92
2019-06-15T22:40:11.550Z,18.86
2019-06-15T22:42:22.476Z,18.83
2019-06-15T22:44:33.316Z,18.80
2019-06-15T22:46:46.481Z,18.76
2019-06-15T22:48:59.833Z,18.63
2019-06-15T22:51:10.822Z,18.64
2019-06-15T22:53:21.636Z,18.55
2019-06-15T22:55:32.474Z,18.55
2019-06-15T22:57:45.941Z,18.53
2019-06-15T22:59:56.740Z,18.51
2019-06-15T23:02:07.742Z,18.50
2019-06-15T23:04:18.568Z,18.40
2019-06-15T23:06:37.495Z,18.42
2019-06-15T23:08:42.124Z,18.36
2019-06-15T23:10:52.961Z,18.29
2019-06-15T23:13:06.304Z,18.14
2019-06-15T23:15:17.399Z,18.15
2019-06-15T23:17:28.512Z,18.22
2019-06-15T23:19:39.322Z,18.22
2019-06-15T23:21:50.172Z,18.15
2019-06-15T23:24:00.995Z,18.14
2019-06-15T23:26:11.800Z,18.15
2019-06-15T23:28:22.658Z,18.22
2019-06-15T23:30:36.363Z,18.22
2019-06-15T23:32:47.060Z,18.15
2019-06-15T23:34:58.089Z,18.09
2019-06-15T23:37:10.839Z,18.03
2019-06-15T23:39:21.649Z,17.97
2019-06-15T23:41:32.509Z,17.92
2019-06-15T23:43:43.331Z,17.89
2019-06-15T23:45:56.121Z,17.88
2019-06-15T23:48:06.911Z,17.85
2019-06-15T23:50:18.263Z,17.84
2019-06-15T23:52:29.086Z,17.87
2019-06-15T23:54:39.923Z,17.85
2019-06-15T23:56:50.753Z,17.87
2019-06-15T23:59:01.587Z,17.89
